Terminal Aerodrome Forecast
Issued by NWS

Home | Current Version | Previous Version | Graphics & Text | Print | Product List | Glossary Off
Versions: 1 2 3 4 5 6 7 8 9 10 11 12 13 14

000
FTUS43 KGRB 041720
TAFMTW
TAF
KMTW 041720Z 0418/0518 31009KT P6SM BKN045 BKN080
     FM042100 06009KT P6SM SCT040 SCT080
     FM050100 07004KT P6SM FEW080=

USA.gov is the U.S. government's official web portal to all federal, state and local government web resources and services.